Time;durP1;ratioP1;P1;durP2;ratioP2;P2;SDS_P1;SDS_P2;PMS_P1;PMS_P2;Temp;Humidity;BMP_temperature;BMP_pressure;BME280_temperature;BME280_humidity;BME280_pressure;Samples;Min_cycle;Max_cycle;Signal;HPM_P1;HPM_P2
2021/10/08 00:00:59;;;;;;;3.38;2.10;;;20.90;55.50;;;;;;5033736;28;20375;-75
2021/10/08 00:03:25;;;;;;;3.97;2.10;;;20.90;55.50;;;;;;5031045;28;20029;-75
2021/10/08 00:05:51;;;;;;;3.50;2.35;;;20.90;55.50;;;;;;5028799;28;20136;-75
2021/10/08 00:08:17;;;;;;;3.75;2.05;;;20.90;55.50;;;;;;5027183;28;20459;-75
2021/10/08 00:10:43;;;;;;;3.70;2.17;;;20.90;55.30;;;;;;5026407;28;20425;-75
2021/10/08 00:13:09;;;;;;;3.90;2.40;;;20.90;55.40;;;;;;5027009;28;20036;-76
2021/10/08 00:15:35;;;;;;;3.72;2.00;;;20.90;55.30;;;;;;5029736;28;20025;-75
2021/10/08 00:18:00;;;;;;;3.28;2.03;;;20.90;55.40;;;;;;5028946;28;20033;-75
2021/10/08 00:20:26;;;;;;;3.35;2.10;;;20.90;55.40;;;;;;5031458;28;20053;-75
2021/10/08 00:22:52;;;;;;;3.75;2.15;;;20.80;55.20;;;;;;5026494;28;20033;-75
2021/10/08 00:25:18;;;;;;;3.88;2.00;;;20.90;55.30;;;;;;5027430;28;20385;-75
2021/10/08 00:27:43;;;;;;;3.70;2.15;;;20.90;55.20;;;;;;5030107;28;20028;-75
2021/10/08 00:30:09;;;;;;;4.32;2.13;;;20.90;55.20;;;;;;5036042;28;20026;-75
2021/10/08 00:32:35;;;;;;;3.25;1.85;;;20.90;55.10;;;;;;5029861;28;20056;-75
2021/10/08 00:35:01;;;;;;;3.38;2.10;;;20.80;55.00;;;;;;5028823;28;20087;-75
2021/10/08 00:37:27;;;;;;;3.28;1.70;;;20.80;55.00;;;;;;5027620;28;20026;-75
2021/10/08 00:39:52;;;;;;;3.60;2.00;;;20.90;55.00;;;;;;5029786;28;20029;-75
2021/10/08 00:42:21;;;;;;;3.90;1.98;;;20.90;54.80;;;;;;5029267;28;20088;-75
2021/10/08 00:44:47;;;;;;;3.55;1.90;;;20.80;54.90;;;;;;5031416;28;20393;-75
2021/10/08 00:47:14;;;;;;;3.72;1.80;;;20.80;54.80;;;;;;5030243;28;20022;-76
2021/10/08 00:49:40;;;;;;;3.35;1.92;;;20.80;54.80;;;;;;5012964;28;20021;-75
2021/10/08 00:52:07;;;;;;;4.68;1.98;;;20.80;54.70;;;;;;5025078;28;20030;-76
2021/10/08 00:54:32;;;;;;;3.70;2.10;;;20.80;54.80;;;;;;5029104;28;20080;-75
2021/10/08 00:56:58;;;;;;;3.90;2.03;;;20.80;54.70;;;;;;5030231;28;20054;-76
2021/10/08 00:59:34;;;;;;;3.58;1.70;;;20.80;54.70;;;;;;5027402;28;20091;-76
2021/10/08 01:02:00;;;;;;;3.28;1.80;;;20.80;54.70;;;;;;5030073;28;20052;-76
2021/10/08 01:04:25;;;;;;;3.67;2.00;;;20.80;54.70;;;;;;5025605;28;20043;-76
2021/10/08 01:06:51;;;;;;;3.20;1.80;;;20.80;54.70;;;;;;5027545;28;20404;-76
2021/10/08 01:09:18;;;;;;;3.45;1.90;;;20.80;54.60;;;;;;5029742;28;20033;-76
2021/10/08 01:11:44;;;;;;;3.80;2.10;;;20.80;54.70;;;;;;5033985;28;20022;-76
2021/10/08 01:14:11;;;;;;;2.88;1.73;;;20.80;54.60;;;;;;5021104;28;20069;-77
2021/10/08 01:16:39;;;;;;;3.30;1.80;;;20.80;54.60;;;;;;5025372;28;20096;-76
2021/10/08 01:19:04;;;;;;;3.30;1.75;;;20.70;54.60;;;;;;5027514;28;20037;-76
2021/10/08 01:21:30;;;;;;;3.25;1.75;;;20.80;55.60;;;;;;5029481;28;20056;-76
2021/10/08 01:23:56;;;;;;;3.60;1.80;;;20.70;54.60;;;;;;5029074;28;20033;-75
2021/10/08 01:26:22;;;;;;;2.78;1.48;;;20.70;54.50;;;;;;5019220;28;20129;-76
2021/10/08 01:28:47;;;;;;;3.35;1.70;;;20.70;54.60;;;;;;5026374;28;20120;-76
2021/10/08 01:31:13;;;;;;;3.53;1.85;;;20.70;54.60;;;;;;5027477;28;20133;-76
2021/10/08 01:33:39;;;;;;;2.80;1.60;;;20.70;54.60;;;;;;5027375;28;20033;-76
2021/10/08 01:36:05;;;;;;;3.35;1.77;;;20.70;54.60;;;;;;5027018;28;20397;-75
2021/10/08 01:38:30;;;;;;;3.55;1.60;;;20.70;54.50;;;;;;5020335;28;20038;-75
2021/10/08 01:40:56;;;;;;;3.30;1.70;;;20.70;54.60;;;;;;5029097;28;20026;-76
2021/10/08 01:43:22;;;;;;;3.63;1.70;;;20.70;54.60;;;;;;5024331;28;20121;-76
2021/10/08 01:45:48;;;;;;;2.88;1.48;;;20.70;54.50;;;;;;5028350;28;20509;-76
2021/10/08 01:48:13;;;;;;;2.80;1.58;;;20.70;54.50;;;;;;5029455;28;20445;-76
2021/10/08 01:50:39;;;;;;;3.78;1.50;;;20.70;54.40;;;;;;5018020;28;20030;-76
2021/10/08 01:53:07;;;;;;;3.33;1.70;;;20.70;54.50;;;;;;5025303;28;20440;-76
2021/10/08 01:55:33;;;;;;;2.90;1.40;;;20.70;54.50;;;;;;5024594;28;20112;-76
2021/10/08 01:57:59;;;;;;;3.55;1.60;;;20.70;54.40;;;;;;5024768;28;20600;-76
2021/10/08 02:00:24;;;;;;;4.07;1.67;;;20.70;54.40;;;;;;5028803;28;20091;-76
2021/10/08 02:02:50;;;;;;;3.50;1.50;;;20.70;54.50;;;;;;5016267;28;20033;-76
2021/10/08 02:05:16;;;;;;;3.25;1.50;;;20.70;54.40;;;;;;5026591;28;20025;-76
2021/10/08 02:07:42;;;;;;;3.28;1.70;;;20.70;54.50;;;;;;5028597;28;20389;-76
2021/10/08 02:10:08;;;;;;;3.88;1.60;;;20.70;54.50;;;;;;5028986;28;20036;-76
2021/10/08 02:12:35;;;;;;;3.30;1.60;;;20.70;54.40;;;;;;5027481;28;20029;-76
2021/10/08 02:15:00;;;;;;;3.72;1.77;;;20.70;54.50;;;;;;5039199;28;20033;-76
2021/10/08 02:17:26;;;;;;;2.97;1.50;;;20.70;54.40;;;;;;5026130;28;20026;-75
2021/10/08 02:19:52;;;;;;;3.22;1.60;;;20.70;54.40;;;;;;5021482;28;20048;-76
2021/10/08 02:22:18;;;;;;;3.35;1.67;;;20.70;54.40;;;;;;5017811;28;20053;-76
2021/10/08 02:24:43;;;;;;;2.70;1.40;;;20.70;54.40;;;;;;5025489;28;20029;-76
2021/10/08 02:27:09;;;;;;;2.72;1.50;;;20.70;54.50;;;;;;5026996;28;20030;-76
2021/10/08 02:29:35;;;;;;;3.17;1.80;;;20.70;54.40;;;;;;5025913;28;20100;-76
2021/10/08 02:32:01;;;;;;;3.80;1.55;;;20.70;54.40;;;;;;5015817;28;20465;-76
2021/10/08 02:34:26;;;;;;;2.90;1.60;;;20.70;54.40;;;;;;5023937;28;20039;-76
2021/10/08 02:36:52;;;;;;;2.95;1.50;;;20.60;54.30;;;;;;5026717;28;20022;-76
2021/10/08 02:39:18;;;;;;;3.10;1.50;;;20.60;54.40;;;;;;5027833;28;20038;-76
2021/10/08 02:41:44;;;;;;;3.55;1.60;;;20.60;54.40;;;;;;5029818;28;20021;-76
2021/10/08 02:44:10;;;;;;;2.72;1.40;;;20.60;54.40;;;;;;5026421;28;20037;-76
2021/10/08 02:46:35;;;;;;;3.97;1.60;;;20.60;54.40;;;;;;5024107;28;20025;-76
2021/10/08 02:49:01;;;;;;;3.30;1.50;;;20.60;54.40;;;;;;5027906;28;20041;-76
2021/10/08 02:51:28;;;;;;;2.72;1.40;;;20.60;54.40;;;;;;5012930;28;20060;-75
2021/10/08 02:53:54;;;;;;;3.15;1.55;;;20.60;54.30;;;;;;5028632;28;20035;-76
2021/10/08 02:56:19;;;;;;;4.45;1.50;;;20.60;54.20;;;;;;5023776;28;20041;-76
2021/10/08 02:58:45;;;;;;;3.45;1.50;;;20.60;54.30;;;;;;5022463;28;20118;-76
2021/10/08 03:01:11;;;;;;;3.28;1.50;;;20.60;54.20;;;;;;5026065;28;20043;-76
2021/10/08 03:03:37;;;;;;;3.42;1.40;;;20.60;54.20;;;;;;5025231;28;20079;-76
2021/10/08 03:06:02;;;;;;;2.95;1.52;;;20.60;54.30;;;;;;5015270;28;20034;-76
2021/10/08 03:08:28;;;;;;;3.13;1.40;;;20.60;54.20;;;;;;5025480;28;20032;-76
2021/10/08 03:10:54;;;;;;;3.30;1.40;;;20.60;54.30;;;;;;5028398;28;20038;-76
2021/10/08 03:13:20;;;;;;;2.90;1.55;;;20.60;54.20;;;;;;5027774;28;20017;-76
2021/10/08 03:15:46;;;;;;;3.03;1.50;;;20.60;54.20;;;;;;5025357;28;20026;-76
2021/10/08 03:18:22;;;;;;;2.80;1.40;;;20.60;54.20;;;;;;5027022;28;20042;-76
2021/10/08 03:20:54;;;;;;;2.60;1.38;;;20.60;54.20;;;;;;5025976;28;20032;-76
2021/10/08 03:23:26;;;;;;;3.03;1.50;;;20.50;54.20;;;;;;5024108;28;20025;-76
2021/10/08 03:25:55;;;;;;;2.83;1.40;;;20.50;54.10;;;;;;5023856;28;20596;-76
2021/10/08 03:28:23;;;;;;;3.28;1.40;;;20.50;54.10;;;;;;5023563;28;20025;-76
2021/10/08 03:30:58;;;;;;;3.08;1.40;;;20.50;54.10;;;;;;5024881;28;20065;-76
2021/10/08 03:33:24;;;;;;;3.08;1.50;;;20.50;54.10;;;;;;5028442;28;20033;-76
2021/10/08 03:35:56;;;;;;;2.70;1.40;;;20.60;54.10;;;;;;5025956;28;20030;-76
2021/10/08 03:38:31;;;;;;;2.80;1.40;;;20.50;54.10;;;;;;5024360;28;20073;-76
2021/10/08 03:43:34;;;;;;;2.75;1.42;;;20.50;54.10;;;;;;5016345;28;20396;-76
2021/10/08 03:46:08;;;;;;;3.70;1.35;;;20.50;54.30;;;;;;5033574;28;20038;-76
2021/10/08 03:51:30;;;;;;;2.83;1.30;;;20.50;54.10;;;;;;5012345;28;20033;-76
2021/10/08 03:54:03;;;;;;;1.92;1.10;;;20.50;54.20;;;;;;5026681;28;20030;-76
2021/10/08 03:56:36;;;;;;;3.22;1.60;;;20.50;54.10;;;;;;5025586;28;20381;-76
2021/10/08 03:59:02;;;;;;;2.65;1.30;;;20.50;54.10;;;;;;5026852;28;20255;-76
2021/10/08 04:01:29;;;;;;;2.70;1.27;;;20.50;54.10;;;;;;5022105;28;20474;-76
2021/10/08 04:03:55;;;;;;;3.42;1.40;;;20.50;54.00;;;;;;5027574;28;20448;-76
2021/10/08 04:06:21;;;;;;;3.35;1.40;;;20.50;54.10;;;;;;5029938;28;20099;-76
2021/10/08 04:08:47;;;;;;;4.78;1.40;;;20.50;54.10;;;;;;5031098;28;20026;-74
2021/10/08 04:11:13;;;;;;;6.75;1.60;;;20.50;54.30;;;;;;5031510;28;20404;-74
2021/10/08 04:13:39;;;;;;;3.97;1.38;;;20.50;55.00;;;;;;5026540;28;20056;-73
2021/10/08 04:16:04;;;;;;;3.22;1.40;;;20.50;55.10;;;;;;5027182;28;20077;-74
2021/10/08 04:18:30;;;;;;;5.57;1.40;;;20.50;55.40;;;;;;5030581;28;20444;-74
2021/10/08 04:20:56;;;;;;;4.90;1.50;;;20.50;55.50;;;;;;5028767;28;20025;-74
2021/10/08 04:23:22;;;;;;;4.53;1.30;;;20.50;55.50;;;;;;5026968;28;20029;-73
2021/10/08 04:25:48;;;;;;;4.43;1.38;;;20.50;55.50;;;;;;5026692;28;20022;-75
2021/10/08 04:28:14;;;;;;;4.70;1.58;;;20.50;55.40;;;;;;5029249;28;20408;-73
2021/10/08 04:30:40;;;;;;;4.97;2.03;;;20.60;55.60;;;;;;5026772;28;20481;-72
2021/10/08 04:33:21;;;;;;;6.07;2.30;;;20.50;55.30;;;;;;5028242;28;20437;-72
2021/10/08 04:35:47;;;;;;;7.15;2.35;;;20.40;55.00;;;;;;5018063;28;20084;-72
2021/10/08 04:38:13;;;;;;;5.97;2.30;;;20.40;54.70;;;;;;5025185;28;20049;-72
2021/10/08 04:40:40;;;;;;;6.05;2.10;;;20.30;54.50;;;;;;5028855;28;20026;-75
2021/10/08 04:43:07;;;;;;;5.57;2.10;;;20.20;54.30;;;;;;5034877;28;20112;-76
2021/10/08 04:45:33;;;;;;;4.32;2.03;;;20.20;54.20;;;;;;5029902;28;20022;-75
2021/10/08 04:47:59;;;;;;;4.00;1.90;;;20.10;54.00;;;;;;5031300;28;20065;-74
2021/10/08 04:50:26;;;;;;;5.45;1.85;;;20.10;54.80;;;;;;5031758;28;20544;-75
2021/10/08 04:52:52;;;;;;;6.05;1.98;;;20.10;53.70;;;;;;5022086;28;20040;-74
2021/10/08 04:55:18;;;;;;;6.63;1.90;;;20.00;53.60;;;;;;5022146;28;20030;-74
2021/10/08 04:57:44;;;;;;;5.50;1.80;;;20.00;53.50;;;;;;5020491;28;20045;-74
